createdAt,value
2017-09-16T00:00:11.313Z,10.70
2017-09-16T00:02:37.239Z,10.70
2017-09-16T00:05:03.188Z,10.60
2017-09-16T00:07:29.095Z,10.50
2017-09-16T00:09:55.084Z,10.50
2017-09-16T00:12:21.946Z,10.50
2017-09-16T00:14:47.876Z,10.50
2017-09-16T00:17:13.809Z,10.60
2017-09-16T00:19:39.739Z,10.60
2017-09-16T00:22:05.686Z,10.60
2017-09-16T00:24:31.584Z,10.40
2017-09-16T00:26:58.218Z,10.40
2017-09-16T00:29:24.192Z,10.40
2017-09-16T00:31:50.124Z,10.50
2017-09-16T00:34:16.867Z,10.40
2017-09-16T00:36:42.793Z,10.40
2017-09-16T00:39:09.595Z,10.40
2017-09-16T00:41:35.517Z,10.30
2017-09-16T00:44:01.429Z,10.30
2017-09-16T00:46:27.378Z,10.30
2017-09-16T00:48:53.415Z,10.30
2017-09-16T00:51:19.398Z,10.30
2017-09-16T00:53:46.168Z,10.20
2017-09-16T00:56:12.070Z,10.20
2017-09-16T00:58:37.981Z,10.30
2017-09-16T01:01:03.916Z,10.20
2017-09-16T01:03:29.855Z,10.20
2017-09-16T01:05:56.709Z,10.20
2017-09-16T01:08:22.636Z,10.20
2017-09-16T01:10:49.549Z,10.10
2017-09-16T01:13:15.462Z,10.10
2017-09-16T01:15:41.391Z,10.10
2017-09-16T01:18:09.055Z,10.10
2017-09-16T01:20:34.991Z,10.10
2017-09-16T01:23:01.947Z,10.00
2017-09-16T01:25:28.083Z,10.00
2017-09-16T01:27:54.039Z,10.10
2017-09-16T01:30:19.972Z,10.10
2017-09-16T01:32:45.880Z,10.10
2017-09-16T01:35:11.781Z,10.00
2017-09-16T01:37:37.691Z,10.00
2017-09-16T01:40:03.615Z,10.00
2017-09-16T01:42:30.304Z,10.00
2017-09-16T01:44:56.204Z,9.80
2017-09-16T01:47:22.108Z,10.00
2017-09-16T01:49:49.039Z,10.00
2017-09-16T01:52:15.723Z,10.00
2017-09-16T01:54:41.651Z,10.00
2017-09-16T01:57:07.596Z,10.10
2017-09-16T01:59:33.755Z,10.10
2017-09-16T02:02:00.439Z,10.00
2017-09-16T02:04:26.353Z,9.90
2017-09-16T02:06:52.291Z,9.90
2017-09-16T02:09:18.214Z,9.90
2017-09-16T02:11:44.144Z,9.90
2017-09-16T02:14:10.141Z,9.90
2017-09-16T02:16:36.052Z,9.90
2017-09-16T02:19:02.003Z,9.80
2017-09-16T02:21:27.923Z,9.80
2017-09-16T02:23:53.885Z,9.90
2017-09-16T02:26:19.948Z,9.90
2017-09-16T02:28:45.891Z,9.90
2017-09-16T02:31:11.795Z,9.80
2017-09-16T02:33:37.700Z,9.80
2017-09-16T02:36:04.416Z,9.90
2017-09-16T02:38:30.323Z,9.90
2017-09-16T02:40:56.255Z,9.90
2017-09-16T02:43:22.180Z,9.90
2017-09-16T02:45:48.093Z,9.70
2017-09-16T02:48:14.008Z,9.60
2017-09-16T02:50:39.918Z,9.30
2017-09-16T02:53:06.733Z,9.10
2017-09-16T02:55:33.059Z,9.00
2017-09-16T02:57:59.877Z,9.00
2017-09-16T03:00:25.826Z,9.00
2017-09-16T03:02:51.779Z,9.00
2017-09-16T03:05:20.517Z,9.10
2017-09-16T03:07:46.495Z,9.10
2017-09-16T03:10:12.436Z,9.10
2017-09-16T03:12:39.220Z,9.10
2017-09-16T03:15:05.184Z,9.20
2017-09-16T03:17:31.095Z,9.20
2017-09-16T03:19:57.757Z,9.20
2017-09-16T03:22:23.678Z,9.20
2017-09-16T03:24:49.635Z,9.20
2017-09-16T03:27:15.587Z,9.20
2017-09-16T03:29:41.519Z,9.20
2017-09-16T03:32:07.467Z,9.20
2017-09-16T03:34:33.379Z,9.20
2017-09-16T03:36:59.275Z,9.30
2017-09-16T03:39:25.879Z,9.30
2017-09-16T03:41:51.817Z,9.20
2017-09-16T03:44:17.732Z,9.30
2017-09-16T03:46:44.387Z,9.30
2017-09-16T03:49:11.043Z,9.40
2017-09-16T03:51:37.007Z,9.30
2017-09-16T03:54:03.143Z,9.40
2017-09-16T03:56:29.083Z,9.50
2017-09-16T03:58:55.741Z,9.40
2017-09-16T04:01:33.899Z,9.40
2017-09-16T04:03:59.832Z,9.40
2017-09-16T04:06:26.690Z,9.40
2017-09-16T04:08:53.356Z,9.40
2017-09-16T04:11:19.274Z,9.30
2017-09-16T04:13:45.181Z,9.30
2017-09-16T04:16:11.110Z,9.30
2017-09-16T04:18:37.018Z,9.30
2017-09-16T04:21:02.926Z,9.30
2017-09-16T04:23:29.879Z,9.40
2017-09-16T04:25:55.959Z,9.30
2017-09-16T04:28:21.896Z,9.30
2017-09-16T04:30:47.919Z,9.30
2017-09-16T04:33:13.846Z,9.40
2017-09-16T04:35:39.838Z,9.30
2017-09-16T04:38:08.701Z,9.30
2017-09-16T04:40:34.646Z,9.20
2017-09-16T04:43:00.686Z,9.20
2017-09-16T04:45:26.607Z,9.10
2017-09-16T04:47:53.651Z,9.10
2017-09-16T04:50:19.691Z,9.10
2017-09-16T04:52:46.379Z,9.20
2017-09-16T04:55:12.329Z,9.10
2017-09-16T04:57:38.297Z,9.20
2017-09-16T05:00:04.961Z,9.20
2017-09-16T05:02:30.860Z,9.20
2017-09-16T05:04:57.799Z,9.30
2017-09-16T05:07:23.736Z,9.20
2017-09-16T05:09:50.151Z,9.20
2017-09-16T05:12:16.630Z,9.20
2017-09-16T05:14:42.600Z,9.10
2017-09-16T05:17:09.262Z,9.30
2017-09-16T05:19:35.183Z,9.20
2017-09-16T05:22:02.061Z,9.30
2017-09-16T05:24:27.995Z,9.30
2017-09-16T05:26:53.924Z,9.30
2017-09-16T05:29:19.869Z,9.40
2017-09-16T05:31:45.823Z,9.40
2017-09-16T05:34:13.635Z,9.30
2017-09-16T05:36:39.559Z,9.10
2017-09-16T05:39:05.483Z,9.10
2017-09-16T05:41:33.130Z,9.20
2017-09-16T05:43:59.151Z,9.20
2017-09-16T05:46:26.091Z,9.20
2017-09-16T05:48:52.978Z,9.20
2017-09-16T05:51:20.039Z,9.20
2017-09-16T05:53:45.951Z,9.20
2017-09-16T05:56:12.324Z,9.20
2017-09-16T05:58:38.318Z,9.30
2017-09-16T06:01:04.250Z,9.30
2017-09-16T06:03:30.306Z,9.30
2017-09-16T06:05:56.303Z,9.30
2017-09-16T06:08:22.322Z,9.30
2017-09-16T06:10:48.260Z,9.20
2017-09-16T06:13:14.803Z,9.20
2017-09-16T06:15:40.775Z,9.30
2017-09-16T06:18:07.320Z,9.30
2017-09-16T06:20:33.243Z,9.30
2017-09-16T06:22:59.211Z,9.40
2017-09-16T06:25:25.157Z,9.40
2017-09-16T06:27:51.093Z,9.50
2017-09-16T06:30:17.059Z,9.50
2017-09-16T06:32:42.995Z,9.50
2017-09-16T06:35:11.178Z,9.30
2017-09-16T06:37:37.176Z,9.30
2017-09-16T06:40:03.140Z,9.40
2017-09-16T06:42:29.068Z,9.40
2017-09-16T06:44:55.021Z,9.50
2017-09-16T06:47:21.644Z,9.60
2017-09-16T06:49:48.843Z,9.60
2017-09-16T06:52:14.772Z,9.50
2017-09-16T06:54:41.420Z,9.50
2017-09-16T06:57:07.383Z,9.50
2017-09-16T06:59:33.957Z,9.60
2017-09-16T07:01:59.890Z,9.60
2017-09-16T07:04:25.799Z,9.70
2017-09-16T07:06:51.741Z,9.70
2017-09-16T07:09:19.036Z,9.60
2017-09-16T07:11:45.876Z,9.50
2017-09-16T07:14:11.890Z,9.50
2017-09-16T07:16:37.872Z,9.50
2017-09-16T07:19:03.788Z,9.50
2017-09-16T07:21:29.741Z,9.50
2017-09-16T07:23:56.511Z,9.50
2017-09-16T07:26:22.491Z,9.70
2017-09-16T07:28:48.490Z,9.70
2017-09-16T07:31:14.397Z,9.70
2017-09-16T07:33:41.068Z,9.80
2017-09-16T07:36:07.051Z,9.70
2017-09-16T07:38:35.891Z,9.80
2017-09-16T07:41:04.265Z,9.70
2017-09-16T07:43:30.803Z,9.80
2017-09-16T07:45:58.847Z,9.80
2017-09-16T07:48:26.367Z,9.80
2017-09-16T07:50:53.617Z,9.80
2017-09-16T07:53:23.042Z,9.80
2017-09-16T07:55:51.534Z,10.00
2017-09-16T07:58:17.489Z,10.00
2017-09-16T08:00:43.511Z,10.00
2017-09-16T08:03:09.435Z,10.00
2017-09-16T08:05:35.342Z,10.00
2017-09-16T08:08:01.263Z,10.20
2017-09-16T08:10:27.186Z,10.40
2017-09-16T08:12:53.113Z,10.40
2017-09-16T08:15:20.038Z,10.30
2017-09-16T08:17:46.057Z,10.40
2017-09-16T08:20:14.310Z,10.50
2017-09-16T08:22:40.983Z,10.80
2017-09-16T08:25:06.908Z,10.80
2017-09-16T08:27:34.010Z,10.90
2017-09-16T08:30:01.031Z,10.90
2017-09-16T08:32:28.411Z,11.00
2017-09-16T08:34:55.351Z,11.00
2017-09-16T08:37:23.560Z,11.00
2017-09-16T08:39:49.472Z,11.00
2017-09-16T08:42:15.371Z,10.80
2017-09-16T08:44:41.317Z,10.70
2017-09-16T08:47:08.131Z,10.70
2017-09-16T08:49:34.965Z,10.70
2017-09-16T08:52:07.915Z,10.80
2017-09-16T08:54:34.650Z,10.80
2017-09-16T08:57:00.656Z,11.00
2017-09-16T08:59:27.380Z,11.40
2017-09-16T09:01:53.372Z,11.40
2017-09-16T09:04:20.800Z,11.70
2017-09-16T09:06:46.752Z,11.60
2017-09-16T09:09:17.956Z,11.50
2017-09-16T09:11:46.966Z,11.70
2017-09-16T09:14:13.752Z,11.80
2017-09-16T09:16:40.446Z,11.60
2017-09-16T09:19:08.247Z,11.60
2017-09-16T09:21:34.167Z,11.50
2017-09-16T09:24:01.983Z,11.60
2017-09-16T09:26:29.080Z,11.70
2017-09-16T09:28:55.986Z,11.90
2017-09-16T09:31:23.473Z,12.00
2017-09-16T09:33:51.851Z,12.00
2017-09-16T09:36:18.682Z,12.00
2017-09-16T09:38:45.647Z,11.90
2017-09-16T09:41:13.956Z,11.80
2017-09-16T09:43:40.000Z,12.00
2017-09-16T09:46:07.152Z,12.20
2017-09-16T09:48:33.151Z,12.20
2017-09-16T09:53:37.193Z,12.20
2017-09-16T09:56:04.488Z,12.30
2017-09-16T09:58:31.821Z,12.60
2017-09-16T10:00:58.004Z,12.70
2017-09-16T10:03:25.125Z,12.70
2017-09-16T10:05:51.541Z,12.80
2017-09-16T10:08:18.551Z,12.80
2017-09-16T10:10:48.180Z,12.80
2017-09-16T10:13:16.531Z,12.80
2017-09-16T10:15:43.507Z,12.90
2017-09-16T10:18:10.415Z,13.00
2017-09-16T10:20:36.783Z,13.30
2017-09-16T10:23:02.954Z,13.50
2017-09-16T10:25:29.862Z,13.80
2017-09-16T10:27:56.684Z,14.00
2017-09-16T10:30:22.775Z,14.20
2017-09-16T10:32:49.420Z,14.30
2017-09-16T10:35:15.474Z,14.50
2017-09-16T10:37:42.571Z,14.70
2017-09-16T10:40:09.112Z,14.30
2017-09-16T10:42:37.191Z,14.30
2017-09-16T10:45:03.931Z,14.60
2017-09-16T10:47:47.375Z,14.70
2017-09-16T10:50:21.357Z,15.00
2017-09-16T10:52:53.427Z,14.90
2017-09-16T10:55:20.773Z,14.90
2017-09-16T10:57:46.727Z,15.00
2017-09-16T11:00:12.690Z,15.30
2017-09-16T11:02:40.089Z,15.50
2017-09-16T11:05:06.499Z,15.50
2017-09-16T11:07:34.444Z,15.40
2017-09-16T11:10:00.334Z,15.30
2017-09-16T11:12:26.263Z,15.30
2017-09-16T11:14:52.184Z,15.70
2017-09-16T11:17:18.132Z,16.10
2017-09-16T11:19:44.044Z,16.40
2017-09-16T11:22:10.711Z,16.70
2017-09-16T11:24:36.621Z,16.70
2017-09-16T11:27:02.599Z,16.90
2017-09-16T11:29:28.519Z,17.20
2017-09-16T11:31:54.436Z,16.80
2017-09-16T11:34:20.385Z,16.70
2017-09-16T11:36:46.291Z,16.80
2017-09-16T11:39:12.262Z,17.00
2017-09-16T11:41:38.186Z,17.00
2017-09-16T11:44:04.152Z,17.20
2017-09-16T11:46:30.767Z,17.20
2017-09-16T11:48:56.684Z,17.10
2017-09-16T11:51:22.652Z,16.90
2017-09-16T11:53:48.632Z,17.00
2017-09-16T11:56:14.575Z,17.30
2017-09-16T11:58:40.483Z,17.70
2017-09-16T12:01:07.915Z,18.00
2017-09-16T12:03:33.824Z,18.30
2017-09-16T12:06:00.757Z,18.40
2017-09-16T12:08:26.663Z,18.20
2017-09-16T12:10:52.580Z,18.40
2017-09-16T12:13:18.571Z,18.20
2017-09-16T12:15:45.128Z,18.10
2017-09-16T12:18:11.065Z,18.10
2017-09-16T12:20:36.957Z,17.70
2017-09-16T12:23:02.910Z,17.50
2017-09-16T12:25:28.855Z,17.50
2017-09-16T12:27:55.500Z,17.50
2017-09-16T12:30:21.469Z,17.70
2017-09-16T12:32:48.207Z,17.80
2017-09-16T12:35:14.779Z,17.90
2017-09-16T12:37:41.254Z,18.20
2017-09-16T12:40:07.520Z,18.70
2017-09-16T12:42:33.522Z,19.10
2017-09-16T12:45:01.667Z,19.20
2017-09-16T12:47:28.422Z,19.40
2017-09-16T12:49:54.380Z,19.60
2017-09-16T12:52:20.361Z,19.70
2017-09-16T12:54:46.373Z,20.00
2017-09-16T12:57:12.294Z,20.20
2017-09-16T12:59:39.020Z,20.40
2017-09-16T13:02:05.845Z,20.50
2017-09-16T13:04:31.814Z,20.40
2017-09-16T13:06:57.977Z,20.70
2017-09-16T13:09:23.940Z,20.80
2017-09-16T13:11:50.549Z,20.90
2017-09-16T13:14:17.322Z,21.00
2017-09-16T13:16:44.093Z,21.00
2017-09-16T13:19:11.924Z,20.90
2017-09-16T13:21:39.842Z,21.00
2017-09-16T13:24:05.802Z,21.30
2017-09-16T13:26:31.777Z,21.40
2017-09-16T13:28:57.693Z,21.40
2017-09-16T13:31:23.687Z,21.60
2017-09-16T13:33:50.769Z,21.80
2017-09-16T13:36:16.701Z,21.90
2017-09-16T13:38:45.507Z,21.30
2017-09-16T13:41:11.479Z,20.70
2017-09-16T13:43:37.375Z,20.50
2017-09-16T13:46:03.345Z,20.60
2017-09-16T13:48:30.100Z,20.80
2017-09-16T13:50:57.032Z,20.40
2017-09-16T13:53:22.967Z,20.00
2017-09-16T13:55:48.919Z,19.60
2017-09-16T13:58:14.839Z,18.70
2017-09-16T14:00:40.747Z,18.40
2017-09-16T14:03:06.683Z,18.30
2017-09-16T14:05:32.631Z,18.10
2017-09-16T14:07:58.615Z,17.90
2017-09-16T14:10:24.531Z,17.50
2017-09-16T14:12:50.473Z,17.00
2017-09-16T14:15:17.559Z,16.20
2017-09-16T14:17:43.498Z,16.10
2017-09-16T14:20:09.409Z,15.90
2017-09-16T14:22:35.324Z,15.80
2017-09-16T14:25:02.015Z,15.40
2017-09-16T14:27:28.695Z,15.30
2017-09-16T14:29:54.619Z,15.20
2017-09-16T14:32:20.524Z,15.10
2017-09-16T14:34:46.463Z,15.00
2017-09-16T14:37:12.363Z,14.80
2017-09-16T14:39:38.290Z,14.80
2017-09-16T14:42:04.198Z,14.80
2017-09-16T14:44:30.123Z,14.80
2017-09-16T14:46:56.047Z,14.60
2017-09-16T14:49:23.193Z,14.60
2017-09-16T14:51:50.374Z,14.60
2017-09-16T14:54:17.187Z,14.50
2017-09-16T14:56:43.108Z,14.30
2017-09-16T14:59:09.055Z,14.30
2017-09-16T15:01:34.975Z,14.30
2017-09-16T15:04:00.903Z,14.40
2017-09-16T15:06:26.811Z,14.30
2017-09-16T15:08:52.757Z,14.30
2017-09-16T15:11:18.710Z,14.20
2017-09-16T15:13:44.638Z,14.10
2017-09-16T15:16:10.570Z,14.00
2017-09-16T15:18:37.289Z,14.00
2017-09-16T15:21:03.245Z,14.10
2017-09-16T15:23:29.170Z,14.10
2017-09-16T15:25:55.094Z,14.10
2017-09-16T15:28:21.009Z,14.10
2017-09-16T15:30:46.932Z,14.00
2017-09-16T15:33:12.832Z,14.20
2017-09-16T15:35:38.747Z,14.30
2017-09-16T15:38:04.671Z,14.50
2017-09-16T15:40:30.972Z,14.70
2017-09-16T15:42:57.625Z,14.90
2017-09-16T15:45:24.968Z,15.20
2017-09-16T15:47:50.970Z,15.10
2017-09-16T15:50:16.899Z,15.10
2017-09-16T15:52:42.993Z,15.00
2017-09-16T15:55:09.003Z,14.60
2017-09-16T15:57:34.973Z,14.40
2017-09-16T16:00:00.982Z,14.40
2017-09-16T16:02:27.137Z,14.50
2017-09-16T16:04:53.080Z,14.70
2017-09-16T16:07:19.041Z,14.80
2017-09-16T16:09:45.055Z,14.60
2017-09-16T16:12:10.991Z,14.50
2017-09-16T16:14:36.927Z,14.50
2017-09-16T16:17:02.857Z,14.60
2017-09-16T16:19:28.802Z,14.70
2017-09-16T16:21:54.814Z,14.80
2017-09-16T16:24:21.323Z,14.70
2017-09-16T16:26:48.033Z,14.50
2017-09-16T16:29:13.974Z,14.40
2017-09-16T16:31:40.451Z,14.30
2017-09-16T16:34:06.409Z,14.20
2017-09-16T16:36:32.339Z,14.20
2017-09-16T16:38:58.656Z,14.00
2017-09-16T16:41:24.583Z,13.80
2017-09-16T16:43:50.581Z,13.80
2017-09-16T16:46:16.564Z,13.70
2017-09-16T16:48:42.543Z,13.70
2017-09-16T16:51:11.558Z,13.70
2017-09-16T16:53:37.529Z,13.70
2017-09-16T16:56:03.652Z,13.60
2017-09-16T16:58:29.610Z,13.70
2017-09-16T17:00:55.571Z,13.70
2017-09-16T17:03:21.499Z,13.60
2017-09-16T17:05:48.066Z,13.60
2017-09-16T17:08:15.473Z,13.50
2017-09-16T17:10:42.215Z,13.50
2017-09-16T17:13:08.251Z,13.50
2017-09-16T17:15:34.233Z,13.50
2017-09-16T17:18:00.360Z,13.50
2017-09-16T17:20:26.321Z,13.60
2017-09-16T17:25:55.489Z,13.60
2017-09-16T17:28:22.303Z,13.80
2017-09-16T17:30:48.401Z,13.70
2017-09-16T17:33:14.342Z,13.60
2017-09-16T17:35:40.273Z,13.60
2017-09-16T17:38:07.689Z,13.60
2017-09-16T17:40:34.388Z,13.60
2017-09-16T17:43:00.303Z,13.50
2017-09-16T17:45:26.248Z,13.60
2017-09-16T17:47:52.692Z,13.50
2017-09-16T17:50:18.603Z,13.50
2017-09-16T17:52:44.525Z,13.40
2017-09-16T17:55:11.742Z,13.40
2017-09-16T17:57:37.898Z,13.30
2017-09-16T18:00:03.906Z,13.30
2017-09-16T18:02:30.614Z,13.30
2017-09-16T18:04:56.504Z,13.20
2017-09-16T18:07:22.461Z,13.20
2017-09-16T18:09:48.383Z,13.20
2017-09-16T18:12:15.265Z,13.20
2017-09-16T18:14:41.269Z,13.10
2017-09-16T18:17:07.203Z,13.10
2017-09-16T18:19:33.111Z,13.10
2017-09-16T18:21:59.032Z,13.10
2017-09-16T18:24:27.887Z,13.00
2017-09-16T18:26:54.746Z,13.00
2017-09-16T18:29:20.656Z,13.00
2017-09-16T18:31:46.562Z,13.00
2017-09-16T18:34:12.532Z,13.00
2017-09-16T18:36:41.333Z,13.00
2017-09-16T18:39:08.024Z,13.00
2017-09-16T18:41:34.022Z,13.00
2017-09-16T18:44:00.958Z,13.00
2017-09-16T18:46:26.880Z,13.00
2017-09-16T18:48:54.247Z,13.00
2017-09-16T18:51:20.224Z,12.90
2017-09-16T18:53:49.957Z,12.90
2017-09-16T18:56:16.603Z,12.90
2017-09-16T18:58:43.197Z,12.80
2017-09-16T19:01:10.734Z,12.80
2017-09-16T19:03:36.695Z,12.80
2017-09-16T19:06:03.355Z,12.70
2017-09-16T19:08:29.273Z,12.70
2017-09-16T19:10:55.172Z,12.70
2017-09-16T19:13:21.846Z,12.70
2017-09-16T19:15:47.804Z,12.70
2017-09-16T19:18:13.711Z,12.70
2017-09-16T19:20:39.624Z,12.70
2017-09-16T19:23:05.651Z,12.70
2017-09-16T19:25:31.579Z,12.70
2017-09-16T19:27:57.495Z,12.70
2017-09-16T19:30:23.439Z,12.60
2017-09-16T19:32:49.336Z,12.60
2017-09-16T19:35:15.251Z,12.60
2017-09-16T19:37:41.157Z,12.70
2017-09-16T19:40:07.105Z,12.70
2017-09-16T19:42:33.055Z,12.70
2017-09-16T19:45:00.243Z,12.80
2017-09-16T19:47:31.244Z,12.80
2017-09-16T19:49:57.201Z,12.80
2017-09-16T19:52:23.187Z,12.80
2017-09-16T19:54:49.125Z,12.80
2017-09-16T19:57:15.038Z,12.80
2017-09-16T19:59:41.087Z,12.90
2017-09-16T20:02:07.830Z,12.90
2017-09-16T20:04:33.745Z,12.80
2017-09-16T20:06:59.666Z,12.80
2017-09-16T20:09:25.605Z,12.80
2017-09-16T20:11:51.515Z,12.80
2017-09-16T20:14:18.097Z,12.80
2017-09-16T20:16:44.032Z,12.80
2017-09-16T20:19:10.679Z,12.70
2017-09-16T20:21:37.421Z,12.70
2017-09-16T20:24:03.356Z,12.70
2017-09-16T20:26:29.264Z,12.80
2017-09-16T20:28:55.167Z,12.80
2017-09-16T20:31:21.847Z,12.80
2017-09-16T20:33:47.767Z,12.80
2017-09-16T20:36:13.661Z,12.80
2017-09-16T20:38:39.656Z,12.80
2017-09-16T20:41:06.297Z,12.80
2017-09-16T20:43:32.183Z,12.80
2017-09-16T20:45:58.095Z,12.80
2017-09-16T20:48:24.117Z,12.70
2017-09-16T20:50:50.091Z,12.70
2017-09-16T20:53:16.808Z,12.70
2017-09-16T20:55:42.733Z,12.60
2017-09-16T20:58:08.659Z,12.70
2017-09-16T21:00:34.671Z,12.60
2017-09-16T21:03:00.580Z,12.60
2017-09-16T21:05:26.484Z,12.50
2017-09-16T21:07:52.398Z,12.60
2017-09-16T21:10:18.326Z,12.50
2017-09-16T21:12:44.250Z,12.50
2017-09-16T21:15:10.156Z,12.40
2017-09-16T21:17:36.089Z,12.40
2017-09-16T21:20:02.051Z,12.40
2017-09-16T21:22:28.687Z,12.40
2017-09-16T21:24:55.337Z,12.30
2017-09-16T21:27:21.243Z,12.30
2017-09-16T21:29:47.957Z,12.30
2017-09-16T21:32:13.883Z,12.20
2017-09-16T21:34:39.840Z,12.30
2017-09-16T21:37:05.775Z,12.30
2017-09-16T21:39:31.723Z,12.20
2017-09-16T21:41:57.644Z,12.30
2017-09-16T21:44:24.538Z,12.30
2017-09-16T21:46:51.186Z,12.20
2017-09-16T21:49:17.180Z,12.20
2017-09-16T21:51:44.519Z,12.20
2017-09-16T21:54:10.445Z,12.30
2017-09-16T21:56:36.378Z,12.30
2017-09-16T21:59:02.367Z,12.40
2017-09-16T22:01:28.315Z,12.20
2017-09-16T22:03:55.025Z,12.10
2017-09-16T22:06:20.981Z,12.10
2017-09-16T22:08:47.699Z,12.10
2017-09-16T22:11:13.629Z,12.10
2017-09-16T22:13:39.573Z,12.00
2017-09-16T22:16:05.475Z,12.00
2017-09-16T22:18:31.397Z,11.90
2017-09-16T22:20:58.052Z,11.80
2017-09-16T22:23:24.021Z,11.70
2017-09-16T22:25:49.967Z,11.70
2017-09-16T22:28:15.896Z,11.80
2017-09-16T22:30:41.816Z,11.80
2017-09-16T22:33:07.815Z,11.80
2017-09-16T22:35:33.775Z,11.80
2017-09-16T22:38:00.412Z,11.70
2017-09-16T22:40:27.071Z,11.60
2017-09-16T22:42:52.992Z,11.60
2017-09-16T22:45:18.967Z,11.60
2017-09-16T22:47:44.907Z,11.60
2017-09-16T22:50:11.575Z,11.60
2017-09-16T22:52:37.493Z,11.60
2017-09-16T22:55:03.415Z,11.60
2017-09-16T22:57:29.333Z,11.60
2017-09-16T22:59:55.255Z,11.60
2017-09-16T23:02:21.166Z,11.60
2017-09-16T23:04:47.089Z,11.60
2017-09-16T23:07:13.029Z,11.70
2017-09-16T23:09:38.982Z,11.70
2017-09-16T23:12:04.887Z,11.70
2017-09-16T23:14:30.807Z,11.60
2017-09-16T23:16:56.723Z,11.60
2017-09-16T23:19:22.632Z,11.40
2017-09-16T23:21:48.554Z,11.40
2017-09-16T23:24:14.443Z,11.40
2017-09-16T23:26:40.345Z,11.30
2017-09-16T23:29:07.007Z,11.30
2017-09-16T23:31:32.905Z,11.30
2017-09-16T23:33:58.833Z,11.40
2017-09-16T23:36:25.483Z,11.50
2017-09-16T23:38:51.373Z,11.30
2017-09-16T23:41:18.019Z,11.30
2017-09-16T23:43:44.729Z,11.40
2017-09-16T23:46:10.776Z,11.30
2017-09-16T23:48:36.736Z,11.40
2017-09-16T23:51:02.645Z,11.40
2017-09-16T23:53:28.536Z,11.40
2017-09-16T23:55:55.180Z,11.30
2017-09-16T23:58:21.865Z,11.30
